Time;durP1;ratioP1;P1;durP2;ratioP2;P2;SDS_P1;SDS_P2;PMS_P1;PMS_P2;Temp;Humidity;BMP_temperature;BMP_pressure;BME280_temperature;BME280_humidity;BME280_pressure;Samples;Min_cycle;Max_cycle;Signal;HPM_P1;HPM_P2
2021/12/11 00:01:45;;;;;;;4.30;2.40;;;;;;;;;;5085797;28;20110;-57
2021/12/11 00:04:15;;;;;;;3.70;1.70;;;;;;;;;;5086080;28;20521;-58
2021/12/11 00:06:47;;;;;;;3.28;1.50;;;;;;;;;;5081528;28;20144;-57
2021/12/11 00:09:21;;;;;;;2.40;1.50;;;;;;;;;;5084168;28;20024;-58
2021/12/11 00:12:19;;;;;;;3.22;1.63;;;;;;;;;;5081623;28;20032;-56
2021/12/11 00:14:49;;;;;;;2.88;1.55;;;;;;;;;;5083164;28;20170;-58
2021/12/11 00:17:28;;;;;;;1.60;1.50;;;;;;;;;;5084957;28;20065;-58
2021/12/11 00:19:53;;;;;;;1.58;1.45;;;;;;;;;;5084800;28;20286;-55
2021/12/11 00:22:23;;;;;;;2.13;1.20;;;;;;;;;;5088355;28;20636;-58
2021/12/11 00:24:50;;;;;;;2.95;1.40;;;;;;;;;;5084630;28;20028;-57
2021/12/11 00:27:20;;;;;;;1.42;1.33;;;;;;;;;;5083119;28;20451;-59
2021/12/11 00:29:46;;;;;;;1.85;1.27;;;;;;;;;;5086552;28;20406;-56
2021/12/11 00:32:20;;;;;;;1.70;1.33;;;;;;;;;;5085555;28;20024;-57
2021/12/11 00:34:46;;;;;;;2.30;1.50;;;;;;;;;;5086134;28;20452;-57
2021/12/11 00:37:14;;;;;;;2.85;1.63;;;;;;;;;;5087055;28;20085;-56
2021/12/11 00:40:09;;;;;;;1.92;1.20;;;;;;;;;;5085982;28;20051;-56
2021/12/11 00:42:35;;;;;;;4.30;2.08;;;;;;;;;;5086388;28;20032;-58
2021/12/11 00:45:14;;;;;;;3.65;1.67;;;;;;;;;;5087296;28;20031;-58
2021/12/11 00:47:50;;;;;;;1.65;1.38;;;;;;;;;;5083740;28;20147;-57
2021/12/11 00:50:18;;;;;;;1.38;1.27;;;;;;;;;;5086724;28;20048;-58
2021/12/11 00:52:51;;;;;;;2.38;1.40;;;;;;;;;;5081910;28;20034;-58
2021/12/11 00:55:27;;;;;;;2.38;1.50;;;;;;;;;;5085404;28;20518;-58
2021/12/11 00:58:13;;;;;;;2.60;1.50;;;;;;;;;;5081493;28;20485;-57
2021/12/11 01:00:46;;;;;;;2.40;1.40;;;;;;;;;;5085415;28;20111;-58
2021/12/11 01:03:15;;;;;;;3.38;1.67;;;;;;;;;;5084477;28;20016;-57
2021/12/11 01:05:44;;;;;;;2.67;1.35;;;;;;;;;;5084607;28;20032;-57
2021/12/11 01:08:22;;;;;;;1.63;1.30;;;;;;;;;;5084988;28;20386;-56
2021/12/11 01:10:50;;;;;;;1.48;1.20;;;;;;;;;;5084882;28;20598;-57
2021/12/11 01:13:20;;;;;;;1.92;1.30;;;;;;;;;;5086757;28;20055;-56
2021/12/11 01:15:53;;;;;;;3.10;1.52;;;;;;;;;;5088135;28;20032;-56
2021/12/11 01:18:29;;;;;;;2.92;1.45;;;;;;;;;;5091032;28;20031;-56
2021/12/11 01:26:02;;;;;;;1.83;1.10;;;;;;;;;;5088555;28;20169;-58
2021/12/11 01:28:28;;;;;;;2.25;1.42;;;;;;;;;;5084258;28;20027;-57
2021/12/11 01:30:54;;;;;;;2.60;1.30;;;;;;;;;;5089714;28;20115;-58
2021/12/11 01:33:20;;;;;;;1.98;1.20;;;;;;;;;;5087646;28;20242;-58
2021/12/11 01:35:46;;;;;;;2.45;1.35;;;;;;;;;;5087627;28;20038;-57
2021/12/11 01:38:18;;;;;;;1.92;1.50;;;;;;;;;;5088689;28;20032;-58
2021/12/11 01:40:47;;;;;;;2.22;1.10;;;;;;;;;;5087676;28;20030;-56
2021/12/11 01:43:13;;;;;;;2.13;1.13;;;;;;;;;;5087437;28;20039;-56
2021/12/11 01:45:47;;;;;;;2.88;1.10;;;;;;;;;;5086940;28;20036;-56
2021/12/11 01:48:23;;;;;;;2.35;1.33;;;;;;;;;;5085083;28;20028;-56
2021/12/11 01:50:56;;;;;;;1.40;1.30;;;;;;;;;;5086940;28;20521;-58
2021/12/11 01:53:33;;;;;;;1.20;1.10;;;;;;;;;;5086158;28;20503;-56
2021/12/11 01:56:21;;;;;;;2.85;1.08;;;;;;;;;;5087851;28;20666;-58
2021/12/11 01:59:06;;;;;;;1.38;1.25;;;;;;;;;;5086346;28;20028;-56
2021/12/11 02:01:53;;;;;;;2.17;1.58;;;;;;;;;;5087192;28;20027;-58
2021/12/11 02:04:22;;;;;;;3.50;2.13;;;;;;;;;;5086079;28;20030;-55
2021/12/11 02:06:50;;;;;;;3.72;2.05;;;;;;;;;;5086164;28;20059;-57
2021/12/11 02:09:26;;;;;;;3.53;2.30;;;;;;;;;;5086113;28;20448;-56
2021/12/11 02:12:06;;;;;;;2.58;1.60;;;;;;;;;;5088309;28;20035;-57
2021/12/11 02:14:38;;;;;;;2.45;1.60;;;;;;;;;;5089329;28;20107;-57
2021/12/11 02:17:04;;;;;;;2.55;1.40;;;;;;;;;;5087651;28;20107;-56
2021/12/11 02:19:36;;;;;;;2.75;1.88;;;;;;;;;;5085776;28;20122;-56
2021/12/11 02:22:02;;;;;;;2.38;1.70;;;;;;;;;;5085279;28;20054;-54
2021/12/11 02:24:35;;;;;;;4.07;1.48;;;;;;;;;;5088713;28;20474;-54
2021/12/11 02:27:05;;;;;;;1.60;1.50;;;;;;;;;;5086829;28;20042;-58
2021/12/11 02:29:35;;;;;;;3.38;1.50;;;;;;;;;;5088322;28;20509;-58
2021/12/11 02:32:18;;;;;;;2.08;1.48;;;;;;;;;;5085492;28;20084;-58
2021/12/11 02:34:50;;;;;;;1.70;1.40;;;;;;;;;;5088598;28;20027;-58
2021/12/11 02:37:24;;;;;;;2.58;1.58;;;;;;;;;;5086621;27;20042;-55
2021/12/11 02:40:00;;;;;;;3.20;1.40;;;;;;;;;;5086395;28;20031;-57
2021/12/11 02:42:40;;;;;;;2.85;1.60;;;;;;;;;;5089869;28;20059;-59
2021/12/11 02:45:17;;;;;;;3.47;1.60;;;;;;;;;;5085751;28;20115;-55
2021/12/11 02:48:06;;;;;;;2.17;1.40;;;;;;;;;;5084960;28;20081;-56
2021/12/11 02:50:31;;;;;;;2.58;1.80;;;;;;;;;;5084782;28;20103;-57
2021/12/11 02:53:03;;;;;;;1.90;1.52;;;;;;;;;;5084345;28;20106;-57
2021/12/11 02:55:34;;;;;;;1.58;1.20;;;;;;;;;;5085713;28;20100;-57
2021/12/11 02:58:05;;;;;;;2.45;1.60;;;;;;;;;;5088520;28;20127;-56
2021/12/11 03:00:38;;;;;;;2.40;1.70;;;;;;;;;;5085753;28;20081;-56
2021/12/11 03:03:08;;;;;;;3.05;1.83;;;;;;;;;;5084470;28;20081;-58
2021/12/11 03:05:44;;;;;;;2.67;2.10;;;;;;;;;;5083030;28;20028;-55
2021/12/11 03:08:14;;;;;;;1.90;1.70;;;;;;;;;;5086367;28;20035;-57
2021/12/11 03:10:43;;;;;;;1.70;1.55;;;;;;;;;;5085788;28;20509;-58
2021/12/11 03:13:08;;;;;;;2.83;1.50;;;;;;;;;;5087531;28;20089;-57
2021/12/11 03:15:34;;;;;;;5.18;1.90;;;;;;;;;;5085191;28;20024;-58
2021/12/11 03:18:03;;;;;;;2.35;1.63;;;;;;;;;;5088475;28;20121;-58
2021/12/11 03:20:29;;;;;;;3.95;1.67;;;;;;;;;;5086922;28;20032;-56
2021/12/11 03:22:55;;;;;;;3.28;1.70;;;;;;;;;;5085977;28;20023;-58
2021/12/11 03:25:25;;;;;;;1.80;1.70;;;;;;;;;;5087916;28;20437;-58
2021/12/11 03:27:51;;;;;;;2.55;1.98;;;;;;;;;;5084898;28;20028;-58
2021/12/11 03:30:21;;;;;;;5.43;2.58;;;;;;;;;;5086316;28;20023;-58
2021/12/11 03:32:50;;;;;;;3.15;2.25;;;;;;;;;;5082763;28;20039;-56
2021/12/11 03:35:16;;;;;;;3.33;2.30;;;;;;;;;;5083156;28;20089;-55
2021/12/11 03:37:42;;;;;;;4.07;2.35;;;;;;;;;;5089671;28;20023;-59
2021/12/11 03:40:08;;;;;;;3.30;2.35;;;;;;;;;;5086580;28;20072;-56
2021/12/11 03:42:36;;;;;;;2.47;1.85;;;;;;;;;;5085611;28;20031;-59
2021/12/11 03:45:06;;;;;;;3.05;2.25;;;;;;;;;;5083511;28;20209;-56
2021/12/11 03:47:35;;;;;;;4.30;2.30;;;;;;;;;;5087979;28;20020;-59
2021/12/11 03:50:03;;;;;;;6.07;2.33;;;;;;;;;;5084797;28;20435;-58
2021/12/11 03:52:29;;;;;;;3.45;2.10;;;;;;;;;;5084253;28;20039;-56
2021/12/11 03:54:55;;;;;;;2.15;1.85;;;;;;;;;;5084453;28;20032;-57
2021/12/11 03:57:24;;;;;;;4.90;2.00;;;;;;;;;;5085407;28;20031;-58
2021/12/11 03:59:52;;;;;;;2.20;1.85;;;;;;;;;;5088284;28;20032;-57
2021/12/11 04:02:24;;;;;;;2.40;1.98;;;;;;;;;;5085200;28;20493;-59
2021/12/11 04:04:54;;;;;;;2.65;1.65;;;;;;;;;;5083515;28;20043;-56
2021/12/11 04:07:25;;;;;;;2.28;1.80;;;;;;;;;;5083424;28;20175;-58
2021/12/11 04:09:51;;;;;;;3.35;1.95;;;;;;;;;;5085124;28;20066;-58
2021/12/11 04:12:18;;;;;;;1.50;1.40;;;;;;;;;;5084710;28;20035;-58
2021/12/11 04:14:48;;;;;;;1.48;1.38;;;;;;;;;;5085213;28;20024;-58
2021/12/11 04:17:18;;;;;;;1.70;1.38;;;;;;;;;;5086254;28;20023;-56
2021/12/11 04:19:44;;;;;;;1.52;1.42;;;;;;;;;;5083752;28;20024;-58
2021/12/11 04:22:10;;;;;;;2.00;1.33;;;;;;;;;;5086655;28;20059;-56
2021/12/11 04:24:39;;;;;;;1.85;1.50;;;;;;;;;;5086601;28;20055;-55
2021/12/11 04:27:07;;;;;;;1.90;1.60;;;;;;;;;;5083899;28;20039;-56
2021/12/11 04:29:34;;;;;;;2.00;1.80;;;;;;;;;;5084630;28;20028;-56
2021/12/11 04:32:01;;;;;;;2.53;1.85;;;;;;;;;;5087763;28;20027;-58
2021/12/11 04:34:29;;;;;;;5.38;2.53;;;;;;;;;;5086464;28;20031;-58
2021/12/11 04:37:01;;;;;;;6.45;3.13;;;;;;;;;;5086134;28;20038;-57
2021/12/11 04:39:34;;;;;;;3.15;2.08;;;;;;;;;;5087113;28;20032;-57
2021/12/11 04:42:06;;;;;;;2.95;2.03;;;;;;;;;;5081674;28;20468;-57
2021/12/11 04:44:37;;;;;;;2.33;1.80;;;;;;;;;;5085418;28;20032;-56
2021/12/11 04:47:08;;;;;;;1.77;1.50;;;;;;;;;;5085265;28;20110;-57
2021/12/11 04:49:41;;;;;;;2.30;1.90;;;;;;;;;;5089126;28;20056;-60
2021/12/11 05:00:25;;;;;;;4.43;2.70;;;;;;;;;;5083297;28;20128;-59
2021/12/11 05:06:20;;;;;;;2.97;2.10;;;;;;;;;;5065266;28;20025;-58
2021/12/11 05:09:12;;;;;;;3.38;2.35;;;;;;;;;;5085507;28;20044;-59
2021/12/11 05:11:45;;;;;;;2.70;2.03;;;;;;;;;;5086445;28;20035;-58
2021/12/11 05:14:13;;;;;;;3.25;2.53;;;;;;;;;;5088129;28;20080;-58
2021/12/11 05:16:39;;;;;;;3.05;2.40;;;;;;;;;;5085520;28;20028;-58
2021/12/11 05:19:06;;;;;;;3.45;2.67;;;;;;;;;;5084042;28;20035;-58
2021/12/11 05:21:33;;;;;;;3.90;2.88;;;;;;;;;;5088367;28;20411;-59
2021/12/11 05:23:59;;;;;;;3.47;2.97;;;;;;;;;;5090909;28;20031;-60
2021/12/11 05:26:25;;;;;;;4.20;2.85;;;;;;;;;;5088503;28;20028;-60
2021/12/11 05:28:51;;;;;;;4.25;3.35;;;;;;;;;;5089961;28;20035;-60
2021/12/11 05:31:17;;;;;;;5.53;3.50;;;;;;;;;;5088879;28;20032;-58
2021/12/11 05:33:43;;;;;;;4.05;3.40;;;;;;;;;;5086461;28;20046;-59
2021/12/11 05:36:12;;;;;;;5.80;3.88;;;;;;;;;;5089205;28;20032;-58
2021/12/11 05:38:39;;;;;;;4.80;3.50;;;;;;;;;;5088165;28;20039;-57
2021/12/11 05:41:09;;;;;;;5.30;3.70;;;;;;;;;;5086165;28;20820;-59
2021/12/11 05:43:36;;;;;;;4.57;3.75;;;;;;;;;;5088650;28;20165;-59
2021/12/11 05:46:02;;;;;;;8.65;5.03;;;;;;;;;;5090365;28;20030;-59
2021/12/11 05:48:28;;;;;;;5.93;3.80;;;;;;;;;;5105258;27;20504;-58
2021/12/11 05:50:57;;;;;;;9.70;5.40;;;;;;;;;;5087890;28;20016;-57
2021/12/11 05:53:24;;;;;;;45.90;13.63;;;;;;;;;;5087748;28;20393;-57
2021/12/11 05:55:54;;;;;;;52.70;16.60;;;;;;;;;;5086360;28;20119;-57
2021/12/11 05:58:35;;;;;;;46.58;15.57;;;;;;;;;;5084754;28;20547;-58
2021/12/11 06:01:02;;;;;;;48.92;13.95;;;;;;;;;;5091868;28;20576;-59
2021/12/11 06:03:28;;;;;;;47.50;14.77;;;;;;;;;;5088263;28;20031;-58
2021/12/11 06:05:54;;;;;;;39.72;12.82;;;;;;;;;;5088163;28;20028;-59
2021/12/11 06:08:19;;;;;;;66.95;19.00;;;;;;;;;;5084956;28;20534;-57
2021/12/11 06:10:45;;;;;;;50.80;15.57;;;;;;;;;;5087481;28;20036;-61
2021/12/11 06:13:10;;;;;;;70.82;20.15;;;;;;;;;;5086734;28;20031;-60
2021/12/11 06:15:36;;;;;;;52.30;16.40;;;;;;;;;;5087506;28;20059;-59
2021/12/11 06:18:02;;;;;;;32.83;12.20;;;;;;;;;;5087084;28;20023;-59
2021/12/11 06:20:31;;;;;;;25.05;10.70;;;;;;;;;;5087731;28;20081;-60
2021/12/11 06:22:57;;;;;;;28.42;10.70;;;;;;;;;;5089189;28;20051;-60
2021/12/11 06:25:26;;;;;;;23.45;8.70;;;;;;;;;;5089871;28;20108;-58
2021/12/11 06:27:52;;;;;;;14.65;7.57;;;;;;;;;;5087570;28;20253;-59
2021/12/11 06:30:18;;;;;;;14.95;8.45;;;;;;;;;;5081298;28;20032;-59
2021/12/11 06:32:46;;;;;;;18.17;8.82;;;;;;;;;;5086110;28;20115;-59
2021/12/11 06:35:36;;;;;;;14.20;7.60;;;;;;;;;;5091189;28;20023;-60
2021/12/11 06:38:02;;;;;;;;;;;;;;;;;;5090202;28;20133;-60
2021/12/11 06:40:28;;;;;;;10.27;5.88;;;;;;;;;;5088069;28;19912;-60
2021/12/11 06:42:55;;;;;;;13.13;7.38;;;;;;;;;;5087338;28;20024;-59
2021/12/11 06:45:22;;;;;;;12.35;7.28;;;;;;;;;;5086400;28;20032;-60
2021/12/11 06:47:48;;;;;;;16.08;7.70;;;;;;;;;;5087252;28;20468;-60
2021/12/11 06:50:14;;;;;;;27.70;11.93;;;;;;;;;;5087811;28;20082;-59
2021/12/11 06:52:40;;;;;;;21.60;10.73;;;;;;;;;;5085353;28;20042;-59
2021/12/11 06:55:07;;;;;;;24.30;11.77;;;;;;;;;;5085188;28;20023;-59
2021/12/11 06:57:33;;;;;;;27.63;12.20;;;;;;;;;;5084564;28;20032;-59
2021/12/11 06:59:59;;;;;;;37.15;16.15;;;;;;;;;;5088046;28;20500;-59
2021/12/11 07:02:24;;;;;;;39.92;19.25;;;;;;;;;;5086203;28;20410;-59
2021/12/11 07:04:54;;;;;;;33.38;16.77;;;;;;;;;;5086593;28;20028;-60
2021/12/11 07:07:23;;;;;;;40.25;16.17;;;;;;;;;;5086090;28;20452;-59
2021/12/11 07:09:49;;;;;;;34.97;14.82;;;;;;;;;;5087555;28;20044;-58
2021/12/11 07:12:14;;;;;;;24.77;11.43;;;;;;;;;;5085642;28;20132;-58
2021/12/11 07:14:40;;;;;;;17.83;9.23;;;;;;;;;;5086442;28;20024;-59
2021/12/11 07:17:06;;;;;;;13.30;8.57;;;;;;;;;;5086400;28;20355;-58
2021/12/11 07:19:31;;;;;;;16.77;7.65;;;;;;;;;;5084378;28;20028;-58
2021/12/11 07:21:57;;;;;;;12.68;7.50;;;;;;;;;;5089365;28;20036;-58
2021/12/11 07:24:29;;;;;;;11.05;7.57;;;;;;;;;;5090260;28;20038;-60
2021/12/11 07:26:55;;;;;;;13.90;8.07;;;;;;;;;;5086162;28;20062;-59
2021/12/11 07:29:21;;;;;;;14.43;8.30;;;;;;;;;;5084935;28;20477;-60
2021/12/11 07:31:49;;;;;;;11.02;6.82;;;;;;;;;;5084556;28;20088;-58
2021/12/11 07:34:18;;;;;;;11.18;6.80;;;;;;;;;;5082122;28;20024;-60
2021/12/11 07:36:45;;;;;;;10.05;6.30;;;;;;;;;;5084876;28;20039;-59
2021/12/11 07:39:14;;;;;;;11.77;6.80;;;;;;;;;;5085211;28;20378;-58
2021/12/11 07:41:40;;;;;;;13.93;8.07;;;;;;;;;;5083995;28;20525;-58
2021/12/11 07:44:06;;;;;;;20.52;9.50;;;;;;;;;;5085034;28;20028;-58
2021/12/11 07:46:32;;;;;;;16.02;8.70;;;;;;;;;;5087533;28;20034;-59
2021/12/11 07:48:59;;;;;;;14.07;7.93;;;;;;;;;;5087756;28;20549;-59
2021/12/11 07:51:26;;;;;;;12.57;7.20;;;;;;;;;;5086240;28;20383;-59
2021/12/11 07:53:53;;;;;;;14.68;8.48;;;;;;;;;;5085368;28;20020;-59
2021/12/11 07:56:20;;;;;;;12.65;7.65;;;;;;;;;;5084246;28;20266;-59
2021/12/11 07:58:47;;;;;;;12.95;6.70;;;;;;;;;;5085578;28;20032;-59
2021/12/11 08:01:13;;;;;;;13.63;8.23;;;;;;;;;;5086691;28;20144;-58
2021/12/11 08:03:38;;;;;;;11.60;7.10;;;;;;;;;;5086281;28;20127;-58
2021/12/11 08:06:06;;;;;;;11.18;6.97;;;;;;;;;;5085391;28;20063;-58
2021/12/11 08:08:32;;;;;;;14.25;7.32;;;;;;;;;;5081589;28;20107;-58
2021/12/11 08:11:00;;;;;;;11.68;7.30;;;;;;;;;;5085569;28;20177;-59
2021/12/11 08:13:26;;;;;;;11.15;6.68;;;;;;;;;;5083408;28;20039;-59
2021/12/11 08:15:55;;;;;;;14.55;8.88;;;;;;;;;;5083806;28;20024;-58
2021/12/11 08:18:21;;;;;;;13.95;8.10;;;;;;;;;;5085345;28;20397;-59
2021/12/11 08:20:47;;;;;;;17.02;8.45;;;;;;;;;;5086931;28;20028;-59
2021/12/11 08:23:14;;;;;;;16.45;8.43;;;;;;;;;;5088759;28;20037;-59
2021/12/11 08:25:41;;;;;;;14.65;8.57;;;;;;;;;;5089280;28;20038;-60
2021/12/11 08:28:08;;;;;;;17.65;9.77;;;;;;;;;;5089047;28;20031;-58
2021/12/11 08:30:36;;;;;;;18.80;10.18;;;;;;;;;;5089178;28;20085;-59
2021/12/11 08:33:02;;;;;;;21.95;10.07;;;;;;;;;;5085794;28;20036;-60
2021/12/11 08:35:28;;;;;;;19.05;9.95;;;;;;;;;;5092349;28;20030;-60
2021/12/11 08:37:55;;;;;;;17.77;9.00;;;;;;;;;;5090360;28;20142;-60
2021/12/11 08:40:25;;;;;;;18.60;10.70;;;;;;;;;;5087675;28;20031;-60
2021/12/11 08:42:51;;;;;;;19.17;10.00;;;;;;;;;;5087626;28;20035;-60
2021/12/11 08:45:25;;;;;;;17.98;9.10;;;;;;;;;;5087867;28;20034;-58
2021/12/11 08:47:58;;;;;;;15.68;8.43;;;;;;;;;;5095827;28;20038;-59
2021/12/11 08:50:27;;;;;;;16.20;8.40;;;;;;;;;;5092150;28;20038;-60
2021/12/11 08:52:53;;;;;;;15.57;8.52;;;;;;;;;;5086871;28;20032;-59
2021/12/11 08:55:27;;;;;;;18.15;9.75;;;;;;;;;;5087554;28;20028;-58
2021/12/11 08:57:53;;;;;;;17.05;9.43;;;;;;;;;;5088249;28;20049;-59
2021/12/11 09:00:25;;;;;;;16.23;9.85;;;;;;;;;;5087950;28;20035;-58
2021/12/11 09:03:17;;;;;;;14.48;8.75;;;;;;;;;;5084341;28;20024;-59
2021/12/11 09:06:00;;;;;;;18.35;11.30;;;;;;;;;;5085232;28;20035;-60
2021/12/11 09:08:33;;;;;;;15.65;9.65;;;;;;;;;;5083721;28;20044;-60
2021/12/11 09:10:59;;;;;;;19.20;10.65;;;;;;;;;;5087267;28;20586;-60
2021/12/11 09:13:31;;;;;;;20.85;11.52;;;;;;;;;;5087257;28;20032;-58
2021/12/11 09:15:59;;;;;;;27.25;12.90;;;;;;;;;;5089621;28;20334;-59
2021/12/11 09:18:36;;;;;;;50.88;20.33;;;;;;;;;;5087234;28;20085;-59
2021/12/11 09:21:11;;;;;;;55.70;22.33;;;;;;;;;;5084858;28;20451;-58
2021/12/11 09:23:45;;;;;;;34.05;16.48;;;;;;;;;;5087972;28;20020;-59
2021/12/11 09:26:24;;;;;;;23.48;13.65;;;;;;;;;;5087061;28;20035;-58
2021/12/11 09:28:58;;;;;;;23.05;12.43;;;;;;;;;;5090787;28;20031;-58
2021/12/11 09:31:27;;;;;;;20.67;11.48;;;;;;;;;;5089187;28;20059;-59
2021/12/11 09:33:57;;;;;;;19.70;11.48;;;;;;;;;;5085062;28;20063;-58
2021/12/11 09:36:31;;;;;;;18.65;11.50;;;;;;;;;;5086375;28;20478;-59
2021/12/11 09:39:05;;;;;;;17.15;10.38;;;;;;;;;;5087974;28;20027;-58
2021/12/11 09:41:32;;;;;;;22.38;12.15;;;;;;;;;;5086281;28;20146;-58
2021/12/11 09:43:57;;;;;;;32.25;18.08;;;;;;;;;;5089095;28;20051;-58
2021/12/11 09:46:30;;;;;;;29.38;16.23;;;;;;;;;;5089866;28;20108;-58
2021/12/11 09:48:56;;;;;;;21.90;12.38;;;;;;;;;;5085412;28;20043;-59
2021/12/11 09:51:27;;;;;;;21.23;12.25;;;;;;;;;;5090228;28;20030;-59
2021/12/11 09:53:56;;;;;;;36.60;17.05;;;;;;;;;;5088318;28;20042;-58
2021/12/11 09:56:52;;;;;;;17.25;10.77;;;;;;;;;;5088392;28;20459;-58
2021/12/11 09:59:19;;;;;;;22.30;10.98;;;;;;;;;;5089107;28;20035;-59
2021/12/11 10:01:49;;;;;;;19.00;10.88;;;;;;;;;;5088056;28;20097;-59
2021/12/11 10:04:20;;;;;;;18.70;10.27;;;;;;;;;;5086052;28;20020;-59
2021/12/11 10:07:12;;;;;;;20.33;10.48;;;;;;;;;;5085711;28;20032;-59
2021/12/11 10:09:48;;;;;;;28.85;15.00;;;;;;;;;;5086243;28;20171;-59
2021/12/11 10:12:20;;;;;;;22.10;12.75;;;;;;;;;;5084336;28;20108;-59
2021/12/11 10:14:47;;;;;;;19.25;11.45;;;;;;;;;;5089113;28;20562;-59
2021/12/11 10:17:22;;;;;;;22.02;10.95;;;;;;;;;;5086657;28;20493;-60
2021/12/11 10:19:50;;;;;;;21.77;10.40;;;;;;;;;;5086405;28;20028;-59
2021/12/11 10:22:36;;;;;;;18.50;9.50;;;;;;;;;;5086361;28;20024;-59
2021/12/11 10:25:06;;;;;;;19.40;10.75;;;;;;;;;;5089512;28;20020;-59
2021/12/11 10:27:32;;;;;;;19.85;10.70;;;;;;;;;;5088571;28;20038;-59
2021/12/11 10:29:59;;;;;;;19.40;10.93;;;;;;;;;;5090686;28;20024;-59
2021/12/11 10:32:29;;;;;;;23.92;12.75;;;;;;;;;;5088952;28;20122;-59
2021/12/11 10:34:56;;;;;;;;;;;;;;;;;;5089358;28;20132;-60
2021/12/11 10:37:30;;;;;;;16.98;9.82;;;;;;;;;;5084727;28;20299;-59
2021/12/11 10:40:00;;;;;;;18.58;10.82;;;;;;;;;;5087931;28;20096;-59
2021/12/11 10:42:26;;;;;;;19.15;11.68;;;;;;;;;;5084385;28;20145;-60
2021/12/11 10:44:58;;;;;;;20.10;11.82;;;;;;;;;;5084600;28;20024;-59
2021/12/11 10:47:28;;;;;;;21.58;11.95;;;;;;;;;;5086720;28;20024;-60
2021/12/11 10:49:54;;;;;;;21.35;11.23;;;;;;;;;;5086277;28;20024;-59
2021/12/11 10:52:26;;;;;;;17.88;10.10;;;;;;;;;;5088213;28;20040;-60
2021/12/11 10:54:55;;;;;;;16.67;9.18;;;;;;;;;;5087809;28;20421;-59
2021/12/11 10:57:22;;;;;;;54.25;20.73;;;;;;;;;;5081646;28;20158;-59
2021/12/11 10:59:51;;;;;;;22.77;11.98;;;;;;;;;;5083858;28;20024;-58
2021/12/11 11:02:20;;;;;;;;;;;;;;;;;;5085375;28;20040;-57
2021/12/11 11:04:52;;;;;;;21.52;12.73;;;;;;;;;;5084865;28;19970;-58
2021/12/11 11:07:19;;;;;;;19.10;11.70;;;;;;;;;;5086413;28;20046;-59
2021/12/11 11:09:45;;;;;;;22.55;11.82;;;;;;;;;;5088174;28;20228;-59
2021/12/11 11:12:14;;;;;;;16.25;9.65;;;;;;;;;;5085972;28;20521;-59
2021/12/11 11:14:41;;;;;;;16.08;8.52;;;;;;;;;;5083991;28;20541;-59
2021/12/11 11:17:14;;;;;;;12.35;7.70;;;;;;;;;;5086472;28;20424;-58
2021/12/11 11:19:40;;;;;;;12.68;8.07;;;;;;;;;;5085058;28;20031;-58
2021/12/11 11:22:11;;;;;;;16.77;9.57;;;;;;;;;;5086437;28;20027;-59
2021/12/11 11:24:42;;;;;;;12.63;8.07;;;;;;;;;;5083847;28;20179;-59
2021/12/11 11:27:09;;;;;;;13.02;7.13;;;;;;;;;;5081782;28;20024;-59
2021/12/11 11:29:37;;;;;;;15.25;8.63;;;;;;;;;;5085120;28;20513;-58
2021/12/11 11:32:08;;;;;;;13.00;7.97;;;;;;;;;;5085327;28;20032;-59
2021/12/11 11:34:40;;;;;;;15.45;8.25;;;;;;;;;;5086079;28;20024;-58
2021/12/11 11:37:08;;;;;;;14.88;8.95;;;;;;;;;;5083529;28;20389;-58
2021/12/11 11:39:35;;;;;;;17.05;9.52;;;;;;;;;;5086099;28;20015;-58
2021/12/11 11:42:07;;;;;;;14.63;8.57;;;;;;;;;;5085145;28;20537;-58
2021/12/11 11:44:32;;;;;;;13.18;8.25;;;;;;;;;;5085605;28;20446;-59
2021/12/11 11:47:01;;;;;;;18.30;10.85;;;;;;;;;;5085413;28;20109;-59
2021/12/11 11:49:27;;;;;;;35.55;16.73;;;;;;;;;;5084529;28;20039;-59
2021/12/11 11:51:56;;;;;;;28.48;13.77;;;;;;;;;;5084980;28;20107;-58
2021/12/11 11:54:24;;;;;;;20.48;10.80;;;;;;;;;;5086188;28;20023;-59
2021/12/11 11:56:58;;;;;;;14.90;8.30;;;;;;;;;;5087373;28;20036;-58
2021/12/11 11:59:24;;;;;;;17.50;9.70;;;;;;;;;;5085309;28;20024;-59
2021/12/11 12:01:54;;;;;;;17.65;9.77;;;;;;;;;;5081650;28;20366;-57
2021/12/11 12:04:21;;;;;;;13.68;8.13;;;;;;;;;;5082330;28;20167;-59
2021/12/11 12:06:54;;;;;;;49.92;13.63;;;;;;;;;;5087475;28;20149;-58
2021/12/11 12:09:21;;;;;;;12.35;7.88;;;;;;;;;;5085464;28;20028;-59
2021/12/11 12:11:46;;;;;;;13.90;7.43;;;;;;;;;;5081995;28;20043;-58
2021/12/11 12:14:22;;;;;;;13.30;7.82;;;;;;;;;;5081297;28;20029;-58
2021/12/11 12:16:49;;;;;;;15.90;9.60;;;;;;;;;;5085009;28;20035;-59
2021/12/11 12:19:16;;;;;;;20.95;8.82;;;;;;;;;;5086398;28;20028;-59
2021/12/11 12:21:45;;;;;;;11.48;7.82;;;;;;;;;;5087726;28;20521;-59
2021/12/11 12:24:11;;;;;;;14.52;9.48;;;;;;;;;;5084887;28;20046;-60
2021/12/11 12:26:38;;;;;;;15.95;9.07;;;;;;;;;;5084620;28;20401;-58
2021/12/11 12:29:07;;;;;;;15.15;8.60;;;;;;;;;;5087833;28;20565;-57
2021/12/11 12:31:41;;;;;;;17.23;8.43;;;;;;;;;;5087835;28;20069;-60
2021/12/11 12:34:09;;;;;;;13.45;7.72;;;;;;;;;;5085227;28;20044;-57
2021/12/11 12:36:36;;;;;;;14.80;8.40;;;;;;;;;;5084027;28;20035;-58
2021/12/11 12:39:04;;;;;;;16.75;9.23;;;;;;;;;;5082645;28;20118;-59
2021/12/11 12:41:42;;;;;;;18.67;9.10;;;;;;;;;;5083479;28;20036;-49
2021/12/11 12:44:19;;;;;;;24.38;8.73;;;;;;;;;;5082219;28;20032;-48
2021/12/11 12:46:48;;;;;;;18.33;7.75;;;;;;;;;;5085820;28;20039;-51
2021/12/11 12:49:15;;;;;;;11.05;6.25;;;;;;;;;;5086335;28;20069;-53
2021/12/11 12:51:41;;;;;;;20.00;6.85;;;;;;;;;;5082248;28;20032;-57
2021/12/11 12:54:11;;;;;;;13.80;7.40;;;;;;;;;;5084445;28;20028;-60
2021/12/11 12:56:57;;;;;;;22.67;11.45;;;;;;;;;;5084356;28;20028;-58
2021/12/11 12:59:32;;;;;;;16.10;8.60;;;;;;;;;;5086015;28;20043;-59
2021/12/11 13:02:05;;;;;;;11.38;7.30;;;;;;;;;;5082683;28;20020;-58
2021/12/11 13:04:36;;;;;;;15.40;8.45;;;;;;;;;;5083944;28;20020;-57
2021/12/11 13:07:05;;;;;;;14.10;8.23;;;;;;;;;;5083831;28;20039;-58
2021/12/11 13:09:35;;;;;;;11.90;7.03;;;;;;;;;;5083973;28;20031;-58
2021/12/11 13:12:06;;;;;;;13.55;8.07;;;;;;;;;;5089274;28;20043;-58
2021/12/11 13:14:33;;;;;;;11.40;7.18;;;;;;;;;;5089568;28;20289;-58
2021/12/11 13:17:09;;;;;;;9.93;6.60;;;;;;;;;;5089035;28;20557;-59
2021/12/11 13:19:42;;;;;;;10.80;6.03;;;;;;;;;;5085464;28;20059;-60
2021/12/11 13:22:18;;;;;;;13.52;6.25;;;;;;;;;;5087051;28;20035;-59
2021/12/11 13:24:49;;;;;;;9.57;5.38;;;;;;;;;;5085905;28;20111;-59
2021/12/11 13:27:18;;;;;;;11.10;6.55;;;;;;;;;;5092020;28;20031;-59
2021/12/11 13:29:48;;;;;;;11.45;6.50;;;;;;;;;;5089131;28;20156;-59
2021/12/11 13:32:20;;;;;;;12.02;7.03;;;;;;;;;;5085043;28;20514;-57
2021/12/11 13:34:49;;;;;;;12.63;7.53;;;;;;;;;;5086044;28;20679;-59
2021/12/11 13:37:17;;;;;;;10.95;6.93;;;;;;;;;;5090898;28;20500;-58
2021/12/11 13:39:45;;;;;;;15.60;8.20;;;;;;;;;;5087794;28;20194;-59
2021/12/11 13:42:16;;;;;;;15.00;7.75;;;;;;;;;;5085791;28;20521;-56
2021/12/11 13:44:44;;;;;;;11.30;6.78;;;;;;;;;;5085110;28;20028;-59
2021/12/11 13:47:17;;;;;;;14.05;7.20;;;;;;;;;;5086128;28;20162;-59
2021/12/11 13:49:43;;;;;;;11.95;7.20;;;;;;;;;;5085917;28;20028;-56
2021/12/11 13:52:10;;;;;;;10.98;6.35;;;;;;;;;;5087455;28;20118;-57
2021/12/11 13:54:38;;;;;;;14.90;7.97;;;;;;;;;;5090650;28;20036;-57
2021/12/11 13:57:10;;;;;;;12.20;6.80;;;;;;;;;;5086138;28;20351;-59
2021/12/11 13:59:37;;;;;;;14.13;8.35;;;;;;;;;;5087050;28;20077;-59
2021/12/11 14:02:03;;;;;;;12.82;8.00;;;;;;;;;;5087159;28;20020;-58
2021/12/11 14:04:32;;;;;;;16.88;9.70;;;;;;;;;;5087510;28;20031;-59
2021/12/11 14:07:12;;;;;;;15.97;9.57;;;;;;;;;;5085229;28;20020;-59
2021/12/11 14:09:52;;;;;;;17.00;8.88;;;;;;;;;;5087093;28;20332;-60
2021/12/11 14:12:19;;;;;;;16.75;8.90;;;;;;;;;;5086883;28;20054;-59
2021/12/11 14:14:45;;;;;;;15.75;8.50;;;;;;;;;;5087290;28;20075;-59
2021/12/11 14:17:11;;;;;;;22.20;10.95;;;;;;;;;;5100696;27;20052;-60
2021/12/11 14:19:37;;;;;;;18.58;10.05;;;;;;;;;;5086286;28;20028;-59
2021/12/11 14:22:05;;;;;;;78.78;30.67;;;;;;;;;;5087231;28;20363;-58
2021/12/11 14:24:32;;;;;;;41.40;18.70;;;;;;;;;;5086106;28;20474;-59
2021/12/11 14:26:59;;;;;;;22.95;11.15;;;;;;;;;;5088950;28;20057;-58
2021/12/11 14:29:25;;;;;;;19.88;10.07;;;;;;;;;;5090143;28;20030;-58
2021/12/11 14:31:51;;;;;;;22.90;12.43;;;;;;;;;;5087613;28;20421;-58
2021/12/11 14:34:16;;;;;;;19.38;11.68;;;;;;;;;;5087190;28;20024;-59
2021/12/11 14:36:42;;;;;;;20.65;10.23;;;;;;;;;;5086393;28;20116;-59
2021/12/11 14:39:14;;;;;;;22.50;12.10;;;;;;;;;;5082774;28;20024;-59
2021/12/11 14:41:44;;;;;;;21.90;11.07;;;;;;;;;;5087203;28;20028;-57
2021/12/11 14:44:17;;;;;;;19.67;10.70;;;;;;;;;;5083887;28;20424;-60
2021/12/11 14:46:42;;;;;;;22.08;11.43;;;;;;;;;;5085105;28;20085;-60
2021/12/11 14:49:08;;;;;;;22.92;12.15;;;;;;;;;;5091435;28;20452;-58
2021/12/11 14:51:34;;;;;;;20.83;10.57;;;;;;;;;;5091087;28;20024;-58
2021/12/11 14:54:00;;;;;;;21.67;11.45;;;;;;;;;;5085148;28;20406;-58
2021/12/11 14:56:33;;;;;;;22.58;11.35;;;;;;;;;;5084761;28;20047;-60
2021/12/11 14:59:02;;;;;;;17.52;9.25;;;;;;;;;;5085833;28;20027;-61
2021/12/11 15:01:33;;;;;;;18.73;9.23;;;;;;;;;;5085904;28;20069;-58
2021/12/11 15:03:59;;;;;;;31.38;13.80;;;;;;;;;;5087853;28;20463;-57
2021/12/11 15:06:25;;;;;;;29.58;13.63;;;;;;;;;;5088137;28;20102;-58